Overview Statistics Trail Chart Weather Telemetry Raw packets
 

This is the latest recevied weather packets stored in our database for station/object OK5TVR-5. If no packets are shown the sender has not sent any weather packets the latest 10 day(s).

<< 1 2 3 4 >>
Time Temp. Humidity Pressure Rain* Wind** Luminosity Snow
1788678398 14.44° C 70% 1021 hPa 0 mm - 64 W/m² -
1788677497 13.33° C 73% 1021 hPa 0 mm - 55 W/m² -
1788676597 12.78° C 76% 1021.1 hPa 0 mm - 47 W/m² -
1788675697 12.78° C 76% 1021 hPa 0 mm - 40 W/m² -
1788674798 11.67° C 78% 1021.2 hPa 0 mm - 33 W/m² -
1788673897 11.11° C 81% 1021.2 hPa 0 mm - 27 W/m² -
1788673001 - - - - - - -
1788673001 - - - - - - -
1788672997 10.56° C 83% 1021.2 hPa 0 mm - 21 W/m² -
1788672097 9.44° C 85% 1021.1 hPa 0 mm - 10 W/m² -
1788671198 9.44° C 82% 1021.1 hPa 0 mm - 8 W/m² -
1788670297 9.44° C 82% 1020.9 hPa 0 mm - 5 W/m² -
1788669397 9.44° C 83% 1021.1 hPa 0 mm - 3 W/m² -
1788668497 9.44° C 81% 1020.8 hPa 0 mm - 1 W/m² -
1788667602 10° C 80% 1020.6 hPa 0 mm - 0 W/m² -
1788667602 10° C 80% 1020.6 hPa 0 mm - 0 W/m² -
1788667597 10° C 80% 1020.6 hPa 0 mm - 0 W/m² -
1788666697 9.44° C 82% 1020.7 hPa 0 mm - 0 W/m² -
1788665797 10° C 82% 1020.6 hPa 0 mm - 0 W/m² -
1788664897 9.44° C 82% 1020.4 hPa 0 mm - 0 W/m² -
1788664003 - - - - - - -
1788664003 - - - - - - -
1788663998 9.44° C 82% 1020.4 hPa 0 mm - 0 W/m² -
1788663097 9.44° C 80% 1020.2 hPa 0 mm - 0 W/m² -
1788662197 9.44° C 79% 1020.2 hPa 0 mm - 0 W/m² -

* Rain latest hour (hover to see other rain measurements)
** Current wind speed in m/s (hover to see current wind gust speed)